createdAt,value
2022-12-01T00:00:49.252Z,0
2022-12-01T00:01:49.289Z,0
2022-12-01T00:02:49.930Z,0
2022-12-01T00:03:50.475Z,0
2022-12-01T00:04:51.663Z,0
2022-12-01T00:05:51.557Z,0
2022-12-01T00:06:52.191Z,0
2022-12-01T00:07:52.806Z,0
2022-12-01T00:08:54.110Z,0
2022-12-01T00:09:55.262Z,0
2022-12-01T00:10:55.279Z,0
2022-12-01T00:11:55.786Z,0
2022-12-01T00:12:55.693Z,0
2022-12-01T00:13:56.303Z,0
2022-12-01T00:14:57.495Z,0
2022-12-01T00:15:58.128Z,0
2022-12-01T00:16:58.427Z,0
2022-12-01T00:17:58.688Z,0
2022-12-01T00:18:58.933Z,0
2022-12-01T00:19:59.803Z,0
2022-12-01T00:21:00.509Z,0
2022-12-01T00:22:01.418Z,0
2022-12-01T00:23:01.451Z,0
2022-12-01T00:24:03.447Z,0
2022-12-01T00:25:04.060Z,0
2022-12-01T00:26:04.974Z,0
2022-12-01T00:27:05.909Z,0
2022-12-01T00:28:06.394Z,0
2022-12-01T00:29:06.582Z,0
2022-12-01T00:30:06.787Z,0
2022-12-01T00:31:07.291Z,0
2022-12-01T00:32:07.896Z,0
2022-12-01T00:33:09.269Z,0
2022-12-01T00:34:16.858Z,0
2022-12-01T00:35:09.749Z,0
2022-12-01T00:36:11.223Z,0
2022-12-01T00:37:11.140Z,0
2022-12-01T00:38:12.326Z,0
2022-12-01T00:39:12.548Z,0
2022-12-01T00:40:13.480Z,0
2022-12-01T00:41:14.179Z,0
2022-12-01T00:42:18.993Z,0
2022-12-01T00:43:15.177Z,0
2022-12-01T00:44:16.070Z,0
2022-12-01T00:45:16.681Z,0
2022-12-01T00:46:17.876Z,0
2022-12-01T00:47:17.864Z,0
2022-12-01T00:48:18.367Z,0
2022-12-01T00:49:18.907Z,0
2022-12-01T00:50:18.809Z,0
2022-12-01T00:51:19.233Z,0
2022-12-01T00:52:20.437Z,0
2022-12-01T00:53:21.623Z,0
2022-12-01T00:54:22.135Z,0
2022-12-01T00:55:22.473Z,0
2022-12-01T00:56:23.403Z,0
2022-12-01T00:57:23.316Z,0
2022-12-01T00:58:24.244Z,0
2022-12-01T00:59:24.852Z,0
2022-12-01T01:00:25.286Z,0
2022-12-01T01:01:26.696Z,0
2022-12-01T01:02:27.307Z,0
2022-12-01T01:03:27.979Z,0
2022-12-01T01:04:28.495Z,0
2022-12-01T01:05:29.402Z,0
2022-12-01T01:06:29.591Z,0
2022-12-01T01:07:29.969Z,0
2022-12-01T01:08:30.268Z,0
2022-12-01T01:09:30.489Z,0
2022-12-01T01:10:31.796Z,0
2022-12-01T01:11:32.373Z,0
2022-12-01T01:12:32.283Z,0
2022-12-01T01:13:31.896Z,0
2022-12-01T01:14:32.811Z,0
2022-12-01T01:15:33.999Z,0
2022-12-01T01:16:35.208Z,0
2022-12-01T01:17:34.685Z,0
2022-12-01T01:18:35.905Z,0
2022-12-01T01:19:36.111Z,0
2022-12-01T01:20:37.043Z,0
2022-12-01T01:21:38.036Z,0
2022-12-01T01:22:38.522Z,0
2022-12-01T01:23:39.009Z,0
2022-12-01T01:24:39.229Z,0
2022-12-01T01:25:39.505Z,0
2022-12-01T01:26:39.121Z,0
2022-12-01T01:27:39.753Z,0
2022-12-01T01:28:40.676Z,0
2022-12-01T01:29:40.582Z,0
2022-12-01T01:30:41.308Z,0
2022-12-01T01:31:41.798Z,0
2022-12-01T01:32:42.281Z,0
2022-12-01T01:33:42.503Z,0
2022-12-01T01:34:43.024Z,0
2022-12-01T01:35:43.662Z,0
2022-12-01T01:36:44.280Z,0
2022-12-01T01:37:45.465Z,0
2022-12-01T01:38:45.649Z,0
2022-12-01T01:39:46.098Z,0
2022-12-01T01:40:46.056Z,0
2022-12-01T01:41:47.099Z,0
2022-12-01T01:42:47.700Z,0
2022-12-01T01:43:48.908Z,0
2022-12-01T01:44:48.823Z,0
2022-12-01T01:45:49.623Z,0
2022-12-01T01:46:49.618Z,0
2022-12-01T01:47:50.804Z,0
2022-12-01T01:48:50.709Z,0
2022-12-01T01:49:51.567Z,0
2022-12-01T01:50:51.454Z,0
2022-12-01T01:51:52.181Z,0
2022-12-01T01:52:52.792Z,0
2022-12-01T01:53:53.678Z,0
2022-12-01T01:54:53.896Z,0
2022-12-01T01:55:54.508Z,0
2022-12-01T01:56:55.690Z,0
2022-12-01T01:57:55.881Z,0
2022-12-01T01:58:56.093Z,0
2022-12-01T01:59:57.153Z,0
2022-12-01T02:00:58.251Z,0
2022-12-01T02:01:58.360Z,0
2022-12-01T02:02:58.856Z,0
2022-12-01T02:03:59.681Z,0
2022-12-01T02:04:59.929Z,0
2022-12-01T02:06:05.050Z,0
2022-12-01T02:07:01.445Z,0
2022-12-01T02:08:02.498Z,0
2022-12-01T02:09:02.978Z,0
2022-12-01T02:10:03.439Z,0
2022-12-01T02:11:03.328Z,0
2022-12-01T02:12:04.323Z,0
2022-12-01T02:13:04.233Z,0
2022-12-01T02:14:05.122Z,0
2022-12-01T02:15:05.620Z,0
2022-12-01T02:16:05.242Z,0
2022-12-01T02:17:06.463Z,0
2022-12-01T02:18:06.522Z,0
2022-12-01T02:19:07.757Z,0
2022-12-01T02:20:08.294Z,0
2022-12-01T02:21:08.349Z,0
2022-12-01T02:22:08.779Z,0
2022-12-01T02:23:09.674Z,0
2022-12-01T02:24:10.565Z,0
2022-12-01T02:25:11.126Z,0
2022-12-01T02:26:11.323Z,0
2022-12-01T02:27:10.928Z,0
2022-12-01T02:28:11.817Z,0
2022-12-01T02:29:12.726Z,0
2022-12-01T02:30:13.639Z,0
2022-12-01T02:31:15.161Z,0
2022-12-01T02:32:15.601Z,0
2022-12-01T02:33:15.500Z,0
2022-12-01T02:34:16.434Z,0
2022-12-01T02:35:16.372Z,0
2022-12-01T02:36:16.966Z,0
2022-12-01T02:37:18.160Z,0
2022-12-01T02:38:19.341Z,0
2022-12-01T02:39:19.576Z,0
2022-12-01T02:40:19.814Z,0
2022-12-01T02:41:20.008Z,0
2022-12-01T02:42:21.036Z,0
2022-12-01T02:43:21.240Z,0
2022-12-01T02:44:21.834Z,0
2022-12-01T02:45:22.752Z,0
2022-12-01T02:46:23.271Z,0
2022-12-01T02:47:22.990Z,0
2022-12-01T02:48:23.625Z,0
2022-12-01T02:49:24.251Z,0
2022-12-01T02:50:25.505Z,0
2022-12-01T02:51:25.415Z,0
2022-12-01T02:52:26.133Z,0
2022-12-01T02:53:27.041Z,0
2022-12-01T02:54:27.661Z,0
2022-12-01T02:55:28.196Z,0
2022-12-01T02:56:28.425Z,0
2022-12-01T02:57:28.635Z,0
2022-12-01T02:58:29.140Z,0
2022-12-01T02:59:29.030Z,0
2022-12-01T03:00:29.937Z,0
2022-12-01T03:01:31.211Z,0
2022-12-01T03:02:31.417Z,0
2022-12-01T03:03:31.423Z,0
2022-12-01T03:04:32.058Z,0
2022-12-01T03:05:33.571Z,0
2022-12-01T03:06:33.781Z,0
2022-12-01T03:07:34.270Z,0
2022-12-01T03:08:34.681Z,0
2022-12-01T03:09:35.868Z,0
2022-12-01T03:10:37.105Z,0
2022-12-01T03:11:37.160Z,0
2022-12-01T03:12:37.890Z,0
2022-12-01T03:13:38.081Z,0
2022-12-01T03:14:38.969Z,0
2022-12-01T03:15:38.999Z,0
2022-12-01T03:16:39.857Z,0
2022-12-01T03:17:39.753Z,0
2022-12-01T03:18:40.678Z,0
2022-12-01T03:19:41.020Z,0
2022-12-01T03:20:41.714Z,0
2022-12-01T03:21:42.306Z,0
2022-12-01T03:22:42.443Z,0
2022-12-01T03:23:43.063Z,0
2022-12-01T03:24:43.973Z,0
2022-12-01T03:25:44.898Z,0
2022-12-01T03:26:44.782Z,0
2022-12-01T03:28:24.419Z,0
2022-12-01T03:28:46.630Z,0
2022-12-01T03:29:47.887Z,0
2022-12-01T03:30:48.333Z,0
2022-12-01T03:31:49.011Z,0
2022-12-01T03:32:49.041Z,0
2022-12-01T03:33:49.972Z,0
2022-12-01T03:34:50.482Z,0
2022-12-01T03:35:50.730Z,0
2022-12-01T03:36:50.936Z,0
2022-12-01T03:37:51.827Z,0
2022-12-01T03:38:51.741Z,0
2022-12-01T03:39:58.671Z,0
2022-12-01T03:40:53.488Z,0
2022-12-01T03:41:53.690Z,0
2022-12-01T03:42:53.970Z,0
2022-12-01T03:43:54.149Z,0
2022-12-01T03:44:54.330Z,0
2022-12-01T03:45:55.401Z,0
2022-12-01T03:46:55.134Z,0
2022-12-01T03:47:55.746Z,0
2022-12-01T03:48:56.949Z,0
2022-12-01T03:49:57.674Z,0
2022-12-01T03:50:57.875Z,0
2022-12-01T03:51:58.770Z,0
2022-12-01T03:52:59.184Z,0
2022-12-01T03:54:00.394Z,0
2022-12-01T03:55:01.310Z,0
2022-12-01T03:56:02.244Z,0
2022-12-01T03:57:02.152Z,0
2022-12-01T03:58:03.043Z,0
2022-12-01T03:59:03.254Z,0
2022-12-01T04:00:03.571Z,0
2022-12-01T04:01:05.062Z,0
2022-12-01T04:02:05.423Z,0
2022-12-01T04:03:06.239Z,0
2022-12-01T04:04:06.295Z,0
2022-12-01T04:05:07.507Z,0
2022-12-01T04:06:07.738Z,0
2022-12-01T04:07:08.665Z,0
2022-12-01T04:08:09.110Z,0
2022-12-01T04:09:09.089Z,0
2022-12-01T04:10:09.975Z,0
2022-12-01T04:11:11.252Z,0
2022-12-01T04:12:11.599Z,0
2022-12-01T04:13:11.593Z,0
2022-12-01T04:14:11.936Z,0
2022-12-01T04:15:12.574Z,0
2022-12-01T04:16:14.353Z,0
2022-12-01T04:17:14.037Z,0
2022-12-01T04:18:15.230Z,0
2022-12-01T04:19:14.860Z,0
2022-12-01T04:20:16.076Z,0
2022-12-01T04:21:16.294Z,0
2022-12-01T04:22:16.916Z,0
2022-12-01T04:23:17.626Z,0
2022-12-01T04:24:18.243Z,0
2022-12-01T04:25:19.446Z,0
2022-12-01T04:26:26.607Z,0
2022-12-01T04:27:19.982Z,0
2022-12-01T04:28:20.891Z,0
2022-12-01T04:29:21.096Z,0
2022-12-01T04:30:21.304Z,0
2022-12-01T04:31:21.464Z,0
2022-12-01T04:32:22.459Z,0
2022-12-01T04:33:23.134Z,0
2022-12-01T04:34:24.046Z,0
2022-12-01T04:35:24.679Z,0
2022-12-01T04:36:25.898Z,0
2022-12-01T04:37:26.086Z,0
2022-12-01T04:38:30.465Z,0
2022-12-01T04:39:26.479Z,0
2022-12-01T04:40:27.392Z,0
2022-12-01T04:41:26.701Z,0
2022-12-01T04:42:27.743Z,0
2022-12-01T04:43:27.452Z,0
2022-12-01T04:44:33.094Z,0
2022-12-01T04:45:28.747Z,0
2022-12-01T04:46:30.279Z,0
2022-12-01T04:47:30.825Z,0
2022-12-01T04:48:30.734Z,0
2022-12-01T04:49:31.226Z,0
2022-12-01T04:50:31.465Z,0
2022-12-01T04:51:31.978Z,0
2022-12-01T04:52:40.504Z,0
2022-12-01T04:53:31.952Z,0
2022-12-01T04:54:33.451Z,0
2022-12-01T04:55:33.654Z,0
2022-12-01T04:56:33.876Z,0
2022-12-01T04:57:34.411Z,0
2022-12-01T04:58:34.595Z,0
2022-12-01T04:59:34.210Z,0
2022-12-01T05:00:35.773Z,0
2022-12-01T05:01:35.797Z,0
2022-12-01T05:02:36.691Z,0
2022-12-01T05:03:37.210Z,0
2022-12-01T05:04:37.824Z,0
2022-12-01T05:05:37.890Z,0
2022-12-01T05:06:39.401Z,0
2022-12-01T05:07:39.253Z,0
2022-12-01T05:08:39.340Z,0
2022-12-01T05:09:40.547Z,0
2022-12-01T05:10:41.173Z,0
2022-12-01T05:11:41.358Z,0
2022-12-01T05:12:42.334Z,0
2022-12-01T05:13:43.085Z,0
2022-12-01T05:14:43.567Z,0
2022-12-01T05:15:43.502Z,0
2022-12-01T05:16:44.048Z,0
2022-12-01T05:17:48.214Z,0
2022-12-01T05:18:45.137Z,0
2022-12-01T05:19:45.164Z,0
2022-12-01T05:20:46.765Z,0
2022-12-01T05:21:46.716Z,0
2022-12-01T05:23:22.780Z,0
2022-12-01T05:24:10.761Z,0
2022-12-01T05:25:11.648Z,0
2022-12-01T05:26:12.274Z,0
2022-12-01T05:27:13.191Z,0
2022-12-01T05:28:14.414Z,0
2022-12-01T05:29:14.606Z,0
2022-12-01T05:30:14.795Z,0
2022-12-01T05:31:15.435Z,0
2022-12-01T05:32:15.748Z,0
2022-12-01T05:33:15.818Z,0
2022-12-01T05:34:16.514Z,0
2022-12-01T05:35:16.693Z,0
2022-12-01T05:36:17.054Z,0
2022-12-01T05:37:18.553Z,0
2022-12-01T05:38:19.829Z,0
2022-12-01T05:39:19.744Z,0
2022-12-01T05:40:20.366Z,0
2022-12-01T05:41:21.848Z,0
2022-12-01T05:42:21.470Z,0
2022-12-01T05:43:28.481Z,0
2022-12-01T05:44:22.748Z,0
2022-12-01T05:45:23.657Z,0
2022-12-01T05:46:25.041Z,0
2022-12-01T05:47:25.010Z,0
2022-12-01T05:48:25.921Z,0
2022-12-01T05:49:26.238Z,0
2022-12-01T05:50:27.129Z,0
2022-12-01T05:51:27.471Z,0
2022-12-01T05:52:28.973Z,0
2022-12-01T05:53:29.456Z,0
2022-12-01T05:54:29.463Z,0
2022-12-01T05:55:30.357Z,0
2022-12-01T05:56:31.546Z,0
2022-12-01T05:57:31.438Z,0
2022-12-01T05:58:32.650Z,0
2022-12-01T05:59:32.984Z,0
2022-12-01T06:00:33.872Z,0
2022-12-01T06:01:34.748Z,0
2022-12-01T06:02:35.170Z,0
2022-12-01T06:03:35.619Z,0
2022-12-01T06:04:36.038Z,0
2022-12-01T06:05:36.949Z,0
2022-12-01T06:06:38.168Z,0
2022-12-01T06:07:38.772Z,0
2022-12-01T06:08:39.020Z,0
2022-12-01T06:09:39.211Z,0
2022-12-01T06:10:39.692Z,0
2022-12-01T06:11:40.605Z,0
2022-12-01T06:12:40.078Z,0
2022-12-01T06:13:41.202Z,0
2022-12-01T06:14:41.206Z,0
2022-12-01T06:15:42.095Z,0
2022-12-01T06:16:42.169Z,0
2022-12-01T06:17:48.210Z,0
2022-12-01T06:18:44.414Z,0
2022-12-01T06:19:44.609Z,0
2022-12-01T06:20:45.203Z,0
2022-12-01T06:21:45.137Z,0
2022-12-01T06:22:45.070Z,0
2022-12-01T06:23:45.953Z,0
2022-12-01T06:24:47.273Z,0
2022-12-01T06:25:47.180Z,0
2022-12-01T06:26:48.179Z,0
2022-12-01T06:27:48.108Z,0
2022-12-01T06:28:49.492Z,0
2022-12-01T06:29:59.626Z,0
2022-12-01T06:30:50.540Z,0
2022-12-01T06:31:51.822Z,0
2022-12-01T06:32:52.137Z,0
2022-12-01T06:33:52.494Z,4
2022-12-01T06:34:53.813Z,4
2022-12-01T06:35:54.001Z,4
2022-12-01T06:36:54.938Z,0
2022-12-01T06:37:55.449Z,0
2022-12-01T06:38:55.351Z,4
2022-12-01T06:39:57.334Z,4
2022-12-01T06:40:56.959Z,4
2022-12-01T06:41:57.574Z,8
2022-12-01T06:42:58.208Z,4
2022-12-01T06:43:59.729Z,4
2022-12-01T06:44:59.139Z,8
2022-12-01T06:46:07.824Z,8
2022-12-01T06:47:01.419Z,8
2022-12-01T06:48:01.598Z,8
2022-12-01T06:49:02.086Z,8
2022-12-01T06:50:03.237Z,8
2022-12-01T06:51:03.160Z,8
2022-12-01T06:52:06.704Z,12
2022-12-01T06:53:05.079Z,8
2022-12-01T06:54:11.435Z,12
2022-12-01T06:55:06.181Z,12
2022-12-01T06:56:07.706Z,12
2022-12-01T06:57:07.535Z,12
2022-12-01T06:58:08.421Z,12
2022-12-01T06:59:09.329Z,12
2022-12-01T07:00:09.462Z,16
2022-12-01T07:01:09.236Z,16
2022-12-01T07:02:10.153Z,16
2022-12-01T07:03:10.690Z,16
2022-12-01T07:04:10.835Z,16
2022-12-01T07:05:12.410Z,20
2022-12-01T07:06:12.328Z,24
2022-12-01T07:07:12.968Z,20
2022-12-01T07:08:13.783Z,20
2022-12-01T07:09:13.497Z,20
2022-12-01T07:10:14.121Z,20
2022-12-01T07:11:15.088Z,24
2022-12-01T07:12:15.979Z,20
2022-12-01T07:13:16.174Z,24
2022-12-01T07:14:17.322Z,24
2022-12-01T07:15:17.334Z,28
2022-12-01T07:16:17.987Z,28
2022-12-01T07:17:19.375Z,28
2022-12-01T07:18:19.865Z,28
2022-12-01T07:19:19.781Z,28
2022-12-01T07:20:20.393Z,32
2022-12-01T07:21:20.725Z,28
2022-12-01T07:22:21.661Z,28
2022-12-01T07:23:22.613Z,32
2022-12-01T07:24:22.525Z,36
2022-12-01T07:25:22.824Z,36
2022-12-01T07:26:23.736Z,40
2022-12-01T07:27:24.954Z,40
2022-12-01T07:28:25.165Z,44
2022-12-01T07:29:25.398Z,44
2022-12-01T07:30:34.280Z,52
2022-12-01T07:31:26.647Z,52
2022-12-01T07:32:26.628Z,52
2022-12-01T07:33:26.834Z,56
2022-12-01T07:34:27.321Z,52
2022-12-01T07:35:27.753Z,56
2022-12-01T07:36:28.664Z,60
2022-12-01T07:37:28.902Z,68
2022-12-01T07:38:33.403Z,68
2022-12-01T07:39:29.599Z,72
2022-12-01T07:40:30.108Z,68
2022-12-01T07:41:29.743Z,72
2022-12-01T07:42:30.930Z,72
2022-12-01T07:43:31.418Z,80
2022-12-01T07:44:31.638Z,80
2022-12-01T07:45:31.784Z,84
2022-12-01T07:46:35.137Z,88
2022-12-01T07:47:32.856Z,92
2022-12-01T07:48:33.471Z,96
2022-12-01T07:49:34.675Z,100
2022-12-01T07:50:34.879Z,104
2022-12-01T07:51:35.788Z,108
2022-12-01T07:52:35.713Z,104
2022-12-01T07:53:35.957Z,104
2022-12-01T07:54:36.166Z,108
2022-12-01T07:55:36.746Z,112
2022-12-01T07:56:36.661Z,116
2022-12-01T07:57:36.574Z,120
2022-12-01T07:58:37.781Z,124
2022-12-01T07:59:38.026Z,124
2022-12-01T08:00:38.938Z,124
2022-12-01T08:01:44.184Z,132
2022-12-01T08:02:39.730Z,136
2022-12-01T08:03:40.253Z,136
2022-12-01T08:04:41.356Z,140
2022-12-01T08:05:42.119Z,140
2022-12-01T08:06:42.588Z,140
2022-12-01T08:07:42.803Z,136
2022-12-01T08:08:43.568Z,132
2022-12-01T08:09:43.763Z,132
2022-12-01T08:10:44.218Z,128
2022-12-01T08:11:44.118Z,132
2022-12-01T08:12:44.316Z,140
2022-12-01T08:13:45.239Z,136
2022-12-01T08:14:45.706Z,140
2022-12-01T08:15:46.335Z,148
2022-12-01T08:16:46.037Z,160
2022-12-01T08:17:45.959Z,160
2022-12-01T08:18:47.170Z,156
2022-12-01T08:19:48.078Z,156
2022-12-01T08:20:48.189Z,168
2022-12-01T08:21:49.112Z,176
2022-12-01T08:22:49.067Z,180
2022-12-01T08:23:49.319Z,184
2022-12-01T08:24:49.534Z,180
2022-12-01T08:25:49.984Z,184
2022-12-01T08:26:50.811Z,204
2022-12-01T08:27:50.730Z,204
2022-12-01T08:28:51.343Z,200
2022-12-01T08:29:53.464Z,196
2022-12-01T08:30:53.573Z,196
2022-12-01T08:31:54.183Z,192
2022-12-01T08:32:54.099Z,196
2022-12-01T08:33:54.719Z,192
2022-12-01T08:35:00.744Z,188
2022-12-01T08:35:56.744Z,180
2022-12-01T08:36:56.953Z,180
2022-12-01T08:37:57.615Z,188
2022-12-01T08:38:58.559Z,192
2022-12-01T08:40:00.275Z,204
2022-12-01T08:41:00.032Z,200
2022-12-01T08:42:01.227Z,196
2022-12-01T08:43:02.214Z,192
2022-12-01T08:44:11.377Z,192
2022-12-01T08:45:03.073Z,188
2022-12-01T08:46:03.337Z,192
2022-12-01T08:47:03.442Z,192
2022-12-01T08:48:03.590Z,188
2022-12-01T08:49:04.527Z,192
2022-12-01T08:50:05.445Z,208
2022-12-01T08:51:05.669Z,224
2022-12-01T08:52:06.722Z,244
2022-12-01T08:53:06.948Z,264
2022-12-01T08:54:07.212Z,280
2022-12-01T08:55:08.411Z,284
2022-12-01T08:56:08.702Z,288
2022-12-01T08:57:09.948Z,276
2022-12-01T08:58:09.863Z,264
2022-12-01T08:59:10.793Z,260
2022-12-01T09:00:11.048Z,256
2022-12-01T09:01:11.048Z,248
2022-12-01T09:02:18.124Z,248
2022-12-01T09:03:12.683Z,248
2022-12-01T09:04:13.052Z,252
2022-12-01T09:05:14.215Z,252
2022-12-01T09:06:14.960Z,244
2022-12-01T09:07:15.656Z,240
2022-12-01T09:08:17.529Z,232
2022-12-01T09:09:17.818Z,224
2022-12-01T09:10:18.029Z,216
2022-12-01T09:11:18.216Z,216
2022-12-01T09:12:19.133Z,216
2022-12-01T09:13:19.754Z,220
2022-12-01T09:14:20.968Z,228
2022-12-01T09:15:21.782Z,232
2022-12-01T09:16:22.378Z,236
2022-12-01T09:17:22.986Z,228
2022-12-01T09:18:22.901Z,220
2022-12-01T09:19:30.956Z,220
2022-12-01T09:20:25.730Z,228
2022-12-01T09:21:25.649Z,232
2022-12-01T09:22:26.841Z,240
2022-12-01T09:23:27.064Z,232
2022-12-01T09:24:27.009Z,232
2022-12-01T09:25:28.243Z,224
2022-12-01T09:26:28.882Z,224
2022-12-01T09:27:29.374Z,216
2022-12-01T09:28:29.610Z,208
2022-12-01T09:29:30.527Z,204
2022-12-01T09:30:32.024Z,200
2022-12-01T09:31:32.349Z,196
2022-12-01T09:32:32.648Z,196
2022-12-01T09:33:32.895Z,200
2022-12-01T09:34:33.842Z,204
2022-12-01T09:35:35.165Z,204
2022-12-01T09:36:35.066Z,208
2022-12-01T09:37:35.983Z,212
2022-12-01T09:38:36.999Z,212
2022-12-01T09:39:37.274Z,208
2022-12-01T09:40:37.765Z,204
2022-12-01T09:41:37.969Z,204
2022-12-01T09:42:43.652Z,204
2022-12-01T09:43:38.345Z,204
2022-12-01T09:44:38.968Z,204
2022-12-01T09:45:39.930Z,208
2022-12-01T09:46:40.733Z,212
2022-12-01T09:47:41.101Z,216
2022-12-01T09:48:41.019Z,216
2022-12-01T09:49:42.341Z,224
2022-12-01T09:50:42.712Z,232
2022-12-01T09:51:43.700Z,236
2022-12-01T09:52:44.893Z,244
2022-12-01T09:53:45.414Z,256
2022-12-01T09:54:45.692Z,268
2022-12-01T09:55:45.604Z,280
2022-12-01T09:56:46.721Z,280
2022-12-01T09:57:46.638Z,284
2022-12-01T09:58:47.148Z,284
2022-12-01T09:59:46.967Z,284
2022-12-01T10:00:48.685Z,276
2022-12-01T10:01:49.476Z,272
2022-12-01T10:02:49.283Z,280
2022-12-01T10:03:50.216Z,284
2022-12-01T10:04:50.833Z,288
2022-12-01T10:06:44.135Z,284
2022-12-01T10:07:32.622Z,284
2022-12-01T10:08:38.420Z,276
2022-12-01T10:09:33.067Z,272
2022-12-01T10:10:34.745Z,268
2022-12-01T10:11:35.239Z,276
2022-12-01T10:12:35.455Z,288
2022-12-01T10:13:36.088Z,300
2022-12-01T10:14:37.339Z,312
2022-12-01T10:15:37.689Z,328
2022-12-01T10:16:38.469Z,328
2022-12-01T10:17:38.839Z,324
2022-12-01T10:18:39.165Z,312
2022-12-01T10:19:40.094Z,308
2022-12-01T10:20:40.994Z,300
2022-12-01T10:21:41.886Z,300
2022-12-01T10:22:42.186Z,308
2022-12-01T10:23:42.854Z,316
2022-12-01T10:24:44.411Z,304
2022-12-01T10:25:44.929Z,296
2022-12-01T10:26:44.858Z,276
2022-12-01T10:27:45.883Z,268
2022-12-01T10:28:47.365Z,260
2022-12-01T10:29:54.026Z,256
2022-12-01T10:30:48.611Z,264
2022-12-01T10:31:49.152Z,280
2022-12-01T10:32:49.892Z,304
2022-12-01T10:33:50.372Z,308
2022-12-01T10:34:50.574Z,292
2022-12-01T10:35:51.225Z,288
2022-12-01T10:36:52.431Z,276
2022-12-01T10:37:53.480Z,280
2022-12-01T10:38:53.463Z,288
2022-12-01T10:39:54.884Z,284
2022-12-01T10:40:54.400Z,284
2022-12-01T10:41:54.344Z,296
2022-12-01T10:42:55.549Z,308
2022-12-01T10:43:56.041Z,320
2022-12-01T10:44:55.742Z,320
2022-12-01T10:45:56.768Z,324
2022-12-01T10:46:57.070Z,328
2022-12-01T10:48:04.313Z,340
2022-12-01T10:48:58.282Z,344
2022-12-01T10:50:00.086Z,344
2022-12-01T10:51:00.016Z,336
2022-12-01T10:52:00.499Z,320
2022-12-01T10:52:59.832Z,304
2022-12-01T10:54:00.736Z,292
2022-12-01T10:55:02.257Z,280
2022-12-01T10:56:02.902Z,276
2022-12-01T10:57:02.520Z,264
2022-12-01T10:58:07.850Z,264
2022-12-01T10:59:04.476Z,260
2022-12-01T11:00:04.430Z,268
2022-12-01T11:01:13.502Z,272
2022-12-01T11:02:06.939Z,276
2022-12-01T11:03:07.122Z,280
2022-12-01T11:04:06.803Z,284
2022-12-01T11:05:07.003Z,288
2022-12-01T11:06:07.485Z,296
2022-12-01T11:07:06.922Z,304
2022-12-01T11:08:08.775Z,312
2022-12-01T11:09:08.774Z,320
2022-12-01T11:10:09.007Z,324
2022-12-01T11:11:09.557Z,340
2022-12-01T11:12:09.490Z,356
2022-12-01T11:13:10.815Z,368
2022-12-01T11:14:11.029Z,372
2022-12-01T11:15:11.780Z,364
2022-12-01T11:16:13.252Z,356
2022-12-01T11:17:13.689Z,344
2022-12-01T11:18:13.691Z,332
2022-12-01T11:19:14.214Z,320
2022-12-01T11:20:14.498Z,316
2022-12-01T11:21:14.959Z,312
2022-12-01T11:22:16.189Z,312
2022-12-01T11:23:16.806Z,316
2022-12-01T11:24:17.740Z,316
2022-12-01T11:25:17.704Z,316
2022-12-01T11:26:17.953Z,312
2022-12-01T11:27:18.895Z,304
2022-12-01T11:28:19.092Z,300
2022-12-01T11:29:18.993Z,296
2022-12-01T11:30:20.574Z,288
2022-12-01T11:31:20.665Z,288
2022-12-01T11:32:21.560Z,288
2022-12-01T11:33:20.905Z,300
2022-12-01T11:34:21.849Z,308
2022-12-01T11:35:22.797Z,316
2022-12-01T11:36:27.392Z,316
2022-12-01T11:37:24.584Z,308
2022-12-01T11:38:42.351Z,296
2022-12-01T11:39:42.561Z,292
2022-12-01T11:40:43.490Z,284
2022-12-01T11:41:43.739Z,272
2022-12-01T11:42:44.650Z,268
2022-12-01T11:44:01.420Z,248
2022-12-01T11:45:14.932Z,224
2022-12-01T11:45:46.534Z,216
2022-12-01T11:47:22.495Z,188
2022-12-01T11:47:47.322Z,184
2022-12-01T11:48:48.138Z,188
2022-12-01T11:49:53.351Z,204
2022-12-01T11:50:48.673Z,212
2022-12-01T11:51:49.610Z,224
2022-12-01T11:52:50.119Z,232
2022-12-01T11:53:50.750Z,236
2022-12-01T11:54:50.965Z,236
2022-12-01T11:55:52.215Z,228
2022-12-01T11:57:37.758Z,212
2022-12-01T11:57:54.111Z,208
2022-12-01T11:58:55.921Z,204
2022-12-01T11:59:56.676Z,200
2022-12-01T12:00:56.692Z,196
2022-12-01T12:01:57.259Z,200
2022-12-01T12:02:57.824Z,212
2022-12-01T12:03:58.644Z,220
2022-12-01T12:04:58.544Z,228
2022-12-01T12:06:40.807Z,236
2022-12-01T12:07:00.531Z,244
2022-12-01T12:08:01.724Z,244
2022-12-01T12:09:01.832Z,244
2022-12-01T12:10:02.492Z,244
2022-12-01T12:11:03.249Z,248
2022-12-01T12:12:03.801Z,248
2022-12-01T12:13:04.993Z,252
2022-12-01T12:14:04.918Z,256
2022-12-01T12:15:05.618Z,256
2022-12-01T12:16:05.749Z,248
2022-12-01T12:17:06.949Z,232
2022-12-01T12:18:07.627Z,224
2022-12-01T12:19:07.125Z,220
2022-12-01T12:20:24.830Z,208
2022-12-01T12:21:07.673Z,204
2022-12-01T12:22:07.681Z,200
2022-12-01T12:23:08.943Z,196
2022-12-01T12:24:08.910Z,196
2022-12-01T12:25:09.715Z,192
2022-12-01T12:26:10.974Z,188
2022-12-01T12:27:11.513Z,184
2022-12-01T12:28:11.427Z,172
2022-12-01T12:29:19.705Z,156
2022-12-01T12:30:12.342Z,152
2022-12-01T12:31:14.086Z,148
2022-12-01T12:32:13.833Z,148
2022-12-01T12:33:15.128Z,148
2022-12-01T12:34:14.747Z,152
2022-12-01T12:35:16.271Z,152
2022-12-01T12:36:16.191Z,156
2022-12-01T12:38:17.499Z,160
2022-12-01T12:39:23.060Z,168
2022-12-01T12:40:18.772Z,168
2022-12-01T12:41:19.734Z,172
2022-12-01T12:42:20.039Z,168
2022-12-01T12:43:20.695Z,168
2022-12-01T12:44:21.618Z,168
2022-12-01T12:45:22.097Z,184
2022-12-01T12:46:22.693Z,196
2022-12-01T12:47:22.170Z,204
2022-12-01T12:48:23.421Z,208
2022-12-01T12:49:41.546Z,204
2022-12-01T12:50:42.102Z,188
2022-12-01T12:51:41.996Z,184
2022-12-01T12:52:43.244Z,180
2022-12-01T12:53:43.628Z,180
2022-12-01T12:54:43.637Z,180
2022-12-01T12:55:43.584Z,180
2022-12-01T12:56:45.089Z,176
2022-12-01T12:57:45.602Z,176
2022-12-01T12:58:46.517Z,188
2022-12-01T12:59:46.698Z,204
2022-12-01T13:00:48.176Z,228
2022-12-01T13:01:48.936Z,244
2022-12-01T13:02:49.015Z,252
2022-12-01T13:03:50.209Z,256
2022-12-01T13:04:50.651Z,248
2022-12-01T13:05:50.887Z,244
2022-12-01T13:06:51.111Z,240
2022-12-01T13:07:50.961Z,232
2022-12-01T13:08:51.631Z,224
2022-12-01T13:09:54.022Z,216
2022-12-01T13:10:53.156Z,208
2022-12-01T13:11:53.679Z,200
2022-12-01T13:12:53.900Z,196
2022-12-01T13:13:54.852Z,192
2022-12-01T13:14:59.535Z,188
2022-12-01T13:15:56.567Z,184
2022-12-01T13:16:56.895Z,184
2022-12-01T13:17:57.399Z,180
2022-12-01T13:18:58.357Z,180
2022-12-01T13:19:59.134Z,180
2022-12-01T13:20:59.045Z,188
2022-12-01T13:22:00.484Z,188
2022-12-01T13:23:00.572Z,192
2022-12-01T13:24:01.555Z,196
2022-12-01T13:25:02.750Z,192
2022-12-01T13:26:02.951Z,192
2022-12-01T13:27:03.451Z,192
2022-12-01T13:28:03.980Z,188
2022-12-01T13:29:04.182Z,176
2022-12-01T13:30:04.375Z,168
2022-12-01T13:31:04.974Z,164
2022-12-01T13:32:05.388Z,164
2022-12-01T13:33:05.722Z,168
2022-12-01T13:34:06.247Z,168
2022-12-01T13:35:06.512Z,168
2022-12-01T13:36:57.080Z,172
2022-12-01T13:37:13.978Z,172
2022-12-01T13:38:13.914Z,168
2022-12-01T13:39:14.947Z,168
2022-12-01T13:40:16.261Z,172
2022-12-01T13:41:16.476Z,176
2022-12-01T13:42:17.145Z,168
2022-12-01T13:43:21.771Z,168
2022-12-01T13:44:25.750Z,172
2022-12-01T13:45:18.720Z,164
2022-12-01T13:46:18.848Z,164
2022-12-01T13:47:18.847Z,164
2022-12-01T13:48:19.588Z,160
2022-12-01T13:49:19.884Z,156
2022-12-01T13:50:20.509Z,156
2022-12-01T13:51:21.159Z,160
2022-12-01T13:52:21.649Z,164
2022-12-01T13:53:21.911Z,160
2022-12-01T13:54:21.811Z,156
2022-12-01T13:55:21.761Z,152
2022-12-01T13:56:22.790Z,148
2022-12-01T13:57:23.017Z,144
2022-12-01T13:58:23.241Z,140
2022-12-01T13:59:24.196Z,132
2022-12-01T14:00:24.893Z,128
2022-12-01T14:01:26.910Z,116
2022-12-01T14:02:26.766Z,112
2022-12-01T14:03:27.570Z,104
2022-12-01T14:04:27.893Z,100
2022-12-01T14:05:28.116Z,96
2022-12-01T14:06:28.322Z,92
2022-12-01T14:07:28.440Z,88
2022-12-01T14:08:34.360Z,80
2022-12-01T14:09:29.346Z,80
2022-12-01T14:10:29.688Z,72
2022-12-01T14:11:30.677Z,76
2022-12-01T14:12:30.671Z,76
2022-12-01T14:13:31.913Z,76
2022-12-01T14:14:37.189Z,72
2022-12-01T14:15:32.512Z,68
2022-12-01T14:16:33.313Z,68
2022-12-01T14:17:33.683Z,64
2022-12-01T14:18:34.365Z,64
2022-12-01T14:19:35.096Z,60
2022-12-01T14:20:35.499Z,60
2022-12-01T14:21:40.936Z,56
2022-12-01T14:22:37.137Z,56
2022-12-01T14:23:37.038Z,52
2022-12-01T14:24:37.689Z,48
2022-12-01T14:25:38.880Z,44
2022-12-01T14:26:43.434Z,40
2022-12-01T14:27:39.276Z,44